Time;durP1;ratioP1;P1;durP2;ratioP2;P2;SDS_P1;SDS_P2;PMS_P1;PMS_P2;Temp;Humidity;BMP_temperature;BMP_pressure;BME280_temperature;BME280_humidity;BME280_pressure;Samples;Min_cycle;Max_cycle;Signal;HPM_P1;HPM_P2
2021/01/29 00:02:15;;;;;;;2.65;1.16;;;;;;;9.48;91.65;98103.63;2322744;68;24411;-78
2021/01/29 00:05:19;;;;;;;1.06;0.60;;;;;;;9.47;91.68;98098.47;2321797;68;20275;-78
2021/01/29 00:08:23;;;;;;;3.20;0.70;;;;;;;9.48;91.81;98098.44;2323414;68;20314;-80
2021/01/29 00:11:25;;;;;;;2.00;0.51;;;;;;;9.46;91.80;98096.78;2325310;68;20301;-78
2021/01/29 00:14:26;;;;;;;1.49;0.70;;;;;;;9.44;92.04;98093.38;2324198;68;20299;-78
2021/01/29 00:17:28;;;;;;;1.06;0.43;;;;;;;9.43;92.21;98091.66;2325780;66;21965;-79
2021/01/29 00:20:30;;;;;;;2.08;0.55;;;;;;;9.45;92.44;98075.19;2323024;68;20311;-77
2021/01/29 00:23:31;;;;;;;0.54;0.43;;;;;;;9.46;92.46;98061.34;2323160;68;20309;-77
2021/01/29 00:26:33;;;;;;;2.88;0.52;;;;;;;9.48;92.47;98058.72;2323887;68;20299;-77
2021/01/29 00:29:35;;;;;;;2.09;0.57;;;;;;;9.50;92.40;98047.44;2322223;68;20310;-77
2021/01/29 00:35:45;;;;;;;1.49;0.50;;;;;;;9.51;92.57;98037.94;2303022;69;20394;-78
2021/01/29 00:38:47;;;;;;;1.56;0.40;;;;;;;9.50;92.63;98026.72;2304958;69;20593;-79
2021/01/29 00:41:48;;;;;;;0.75;0.50;;;;;;;9.52;92.64;98017.19;2302932;69;20776;-77
2021/01/29 00:44:50;;;;;;;0.70;0.40;;;;;;;9.54;92.73;98020.59;2302200;69;20416;-79
2021/01/29 00:47:52;;;;;;;1.01;0.50;;;;;;;9.57;92.77;98006.72;2301865;66;20325;-80
2021/01/29 00:50:54;;;;;;;0.38;0.38;;;;;;;9.58;92.71;97988.53;2310455;69;20395;-82
2021/01/29 00:53:56;;;;;;;0.74;0.35;;;;;;;9.60;92.77;97986.75;2313955;69;20316;-84
2021/01/29 00:56:57;;;;;;;1.63;0.31;;;;;;;9.60;92.66;97985.91;2312644;69;20819;-81
2021/01/29 00:59:59;;;;;;;0.86;0.44;;;;;;;9.59;92.87;97979.03;2312960;69;20290;-81
2021/01/29 01:03:01;;;;;;;1.54;0.30;;;;;;;9.58;93.03;97964.38;2312021;66;20320;-81
2021/01/29 01:06:03;;;;;;;0.20;0.20;;;;;;;9.59;93.23;97964.34;2309853;69;20400;-81
2021/01/29 01:09:05;;;;;;;0.47;0.24;;;;;;;9.62;93.25;97960.81;2314639;69;20278;-80
2021/01/29 01:12:07;;;;;;;0.59;0.22;;;;;;;9.64;93.30;97946.06;2309181;69;20730;-80
2021/01/29 01:15:15;;;;;;;0.20;0.20;;;;;;;9.66;93.32;97941.69;2308282;69;20298;-80
2021/01/29 01:18:17;;;;;;;0.30;0.30;;;;;;;9.67;93.34;97944.25;2309926;69;20316;-79
2021/01/29 01:21:19;;;;;;;1.05;0.30;;;;;;;9.69;93.30;97921.78;2307773;69;20326;-80
2021/01/29 01:24:20;;;;;;;1.23;0.40;;;;;;;9.71;93.31;97926.06;2306148;69;20307;-80
2021/01/29 01:27:22;;;;;;;1.89;0.31;;;;;;;9.72;93.36;97922.59;2304897;69;20306;-80
2021/01/29 01:30:28;;;;;;;0.98;0.30;;;;;;;9.74;93.30;97915.63;2308020;66;23929;-80
2021/01/29 01:33:30;;;;;;;0.56;0.30;;;;;;;9.75;93.28;97909.53;2306958;69;20311;-79
2021/01/29 01:36:32;;;;;;;2.92;0.60;;;;;;;9.77;93.27;97889.63;2310054;69;20311;-79
2021/01/29 01:39:34;;;;;;;0.73;0.40;;;;;;;9.77;93.28;97892.22;2308842;69;20642;-79
2021/01/29 01:42:36;;;;;;;1.45;0.30;;;;;;;9.80;93.40;97876.56;2311934;69;20941;-80
2021/01/29 01:45:54;;;;;;;0.24;0.24;;;;;;;9.83;93.32;97871.31;2308683;69;21560;-79
2021/01/29 01:49:07;;;;;;;0.20;0.20;;;;;;;9.83;93.14;97872.16;2309505;69;20315;-79
2021/01/29 01:52:15;;;;;;;0.25;0.20;;;;;;;9.85;93.12;97866.94;2311373;69;20156;-79
2021/01/29 01:55:20;;;;;;;0.64;0.28;;;;;;;9.87;93.03;97863.41;2310041;69;20425;-79
2021/01/29 01:58:23;;;;;;;0.66;0.29;;;;;;;9.89;92.96;97863.38;2311006;69;20144;-79
2021/01/29 02:01:24;;;;;;;0.28;0.28;;;;;;;9.89;92.81;97850.44;2311733;66;21509;-78
2021/01/29 02:04:32;;;;;;;1.50;0.47;;;;;;;9.88;92.85;97846.97;2310693;69;20435;-79
2021/01/29 02:07:44;;;;;;;1.58;0.30;;;;;;;9.88;92.88;97846.13;2311071;69;20614;-79
2021/01/29 02:10:48;;;;;;;2.20;0.56;;;;;;;9.87;92.80;97837.47;2315428;69;20309;-79
2021/01/29 02:13:50;;;;;;;1.25;0.30;;;;;;;9.87;92.73;97832.28;2311354;69;20467;-79
2021/01/29 02:16:59;;;;;;;0.45;0.22;;;;;;;9.88;92.73;97826.25;2309715;66;20305;-79
2021/01/29 02:20:37;;;;;;;1.61;0.30;;;;;;;9.88;92.74;97831.44;2310644;69;20829;-78
2021/01/29 02:24:03;;;;;;;1.08;0.30;;;;;;;9.85;92.58;97815.94;2310182;69;20207;-79
2021/01/29 02:27:13;;;;;;;0.34;0.20;;;;;;;9.84;92.65;97803.00;2313091;69;20314;-78
2021/01/29 02:30:53;;;;;;;1.50;0.40;;;;;;;9.83;92.58;97791.78;2311428;67;20289;-78
2021/01/29 02:34:09;;;;;;;;;;;;;;;9.83;92.71;97785.75;2311077;69;20305;-78
2021/01/29 02:37:48;;;;;;;0.65;0.30;;;;;;;9.83;92.76;97777.97;2311321;69;20065;-78
2021/01/29 02:41:12;;;;;;;0.24;0.16;;;;;;;9.80;92.71;97771.16;2310893;69;20395;-78
2021/01/29 02:44:35;;;;;;;0.52;0.29;;;;;;;9.82;92.84;97763.31;2309287;69;20182;-78
2021/01/29 02:47:50;;;;;;;1.29;0.25;;;;;;;9.82;92.75;97758.13;2309264;67;24403;-78
2021/01/29 02:51:14;;;;;;;1.65;0.20;;;;;;;9.83;92.65;97749.47;2309573;69;20313;-78
2021/01/29 02:54:32;;;;;;;0.55;0.20;;;;;;;9.83;92.32;97724.41;2311213;69;20331;-78
2021/01/29 02:57:47;;;;;;;0.20;0.20;;;;;;;9.83;92.27;97715.78;2310733;69;20152;-78
2021/01/29 03:01:01;;;;;;;0.61;0.17;;;;;;;9.82;92.15;97701.97;2308348;66;20195;-79
2021/01/29 03:04:24;;;;;;;0.41;0.39;;;;;;;9.80;92.13;97690.78;2311457;69;20333;-79
2021/01/29 03:07:42;;;;;;;0.88;0.10;;;;;;;9.81;92.07;97687.31;2311060;69;20827;-78
2021/01/29 03:10:52;;;;;;;0.51;0.20;;;;;;;9.80;91.97;97687.34;2311781;69;20751;-79
2021/01/29 03:14:08;;;;;;;3.00;0.25;;;;;;;9.80;92.00;97674.41;2312135;69;20182;-78
2021/01/29 03:17:15;;;;;;;0.59;0.19;;;;;;;9.81;91.90;97660.53;2311753;66;21660;-78
2021/01/29 03:20:25;;;;;;;0.43;0.10;;;;;;;9.79;91.85;97663.19;2311641;69;20297;-78
2021/01/29 03:23:41;;;;;;;0.10;0.10;;;;;;;9.80;91.90;97654.50;2311503;69;20301;-78
2021/01/29 03:26:51;;;;;;;0.77;0.20;;;;;;;9.79;91.90;97652.81;2315297;69;20325;-78
2021/01/29 03:30:00;;;;;;;1.10;0.10;;;;;;;9.80;91.88;97643.28;2312231;69;21011;-78
2021/01/29 03:33:04;;;;;;;0.47;0.26;;;;;;;9.76;91.95;97634.75;2311197;66;20767;-78
2021/01/29 03:36:09;;;;;;;0.20;0.20;;;;;;;9.76;92.09;97628.72;2310833;69;20269;-78
2021/01/29 03:39:31;;;;;;;0.19;0.10;;;;;;;9.77;92.06;97620.91;2311468;69;20307;-78
2021/01/29 03:42:41;;;;;;;1.79;0.20;;;;;;;9.77;92.04;97612.28;2310780;69;20670;-78
2021/01/29 03:46:07;;;;;;;0.50;0.10;;;;;;;9.75;92.08;97614.06;2310514;69;21956;-78
2021/01/29 03:49:18;;;;;;;0.29;0.10;;;;;;;9.75;92.25;97601.13;2313573;69;20312;-78
2021/01/29 03:52:45;;;;;;;0.22;0.08;;;;;;;9.75;92.36;97595.94;2312964;69;20285;-78
2021/01/29 03:56:12;;;;;;;0.11;0.06;;;;;;;9.72;92.28;97586.50;2313045;69;20313;-78
2021/01/29 03:59:20;;;;;;;0.03;0.03;;;;;;;9.71;92.54;97571.00;2306762;69;20298;-78
2021/01/29 04:02:37;;;;;;;0.00;0.00;;;;;;;9.69;92.61;97568.44;2311008;69;20322;-79
2021/01/29 04:05:47;;;;;;;0.40;0.10;;;;;;;9.71;92.66;97558.06;2313607;69;20336;-79
2021/01/29 04:09:12;;;;;;;0.75;0.10;;;;;;;9.69;92.68;97546.00;2310185;69;20336;-80
2021/01/29 04:12:22;;;;;;;0.36;0.10;;;;;;;9.69;92.71;97547.72;2313516;69;20293;-79
2021/01/29 04:15:34;;;;;;;0.10;0.10;;;;;;;9.67;92.88;97534.78;2311123;66;20654;-79
2021/01/29 04:18:43;;;;;;;0.21;0.10;;;;;;;9.69;92.92;97530.44;2312061;69;20656;-78
2021/01/29 04:22:09;;;;;;;0.08;0.07;;;;;;;9.70;92.95;97520.94;2312920;69;20296;-79
2021/01/29 04:25:19;;;;;;;0.35;0.05;;;;;;;9.68;92.78;97508.00;2310867;69;20176;-78
2021/01/29 04:28:24;;;;;;;0.09;0.09;;;;;;;9.67;92.92;97526.19;2311319;69;20281;-78
2021/01/29 04:31:28;;;;;;;0.31;0.00;;;;;;;9.67;93.13;97519.25;2311319;66;20301;-79
2021/01/29 04:34:34;;;;;;;0.01;0.01;;;;;;;9.69;93.21;97526.97;2311590;69;20876;-78
2021/01/29 04:37:41;;;;;;;0.25;0.10;;;;;;;9.70;93.24;97520.94;2312008;69;21130;-79
2021/01/29 04:40:48;;;;;;;1.29;0.10;;;;;;;9.72;93.21;97501.00;2311544;69;20838;-77
2021/01/29 04:44:22;;;;;;;0.71;0.10;;;;;;;9.74;92.87;97537.22;2311444;69;20302;-78
2021/01/29 04:47:24;;;;;;;0.73;0.00;;;;;;;9.77;92.22;97537.97;2311094;69;26144;-78
2021/01/29 04:50:55;;;;;;;0.01;0.00;;;;;;;9.77;91.23;97556.13;2312121;69;20674;-78
2021/01/29 04:54:35;;;;;;;0.00;0.00;;;;;;;9.72;89.69;97578.75;2307684;69;20667;-78
2021/01/29 04:57:56;;;;;;;0.00;0.00;;;;;;;9.66;88.50;97568.53;2310920;69;20671;-79
2021/01/29 05:01:35;;;;;;;1.52;0.03;;;;;;;9.60;88.04;97563.53;2312068;66;20375;-77
2021/01/29 05:05:02;;;;;;;0.00;0.00;;;;;;;9.49;86.73;97586.31;2310374;69;20364;-77
2021/01/29 05:08:24;;;;;;;0.00;0.00;;;;;;;9.30;85.63;97581.66;2311579;69;20285;-77
2021/01/29 05:11:35;;;;;;;1.26;0.04;;;;;;;9.16;85.89;97604.53;2309253;69;20331;-77
2021/01/29 05:15:01;;;;;;;0.44;0.08;;;;;;;9.06;85.31;97590.13;2308862;69;20319;-77
2021/01/29 05:18:30;;;;;;;0.00;0.00;;;;;;;9.02;85.31;97593.69;2310191;66;20343;-78
2021/01/29 05:21:57;;;;;;;0.43;0.08;;;;;;;8.93;84.94;97596.53;2310517;69;20303;-78
2021/01/29 05:25:17;;;;;;;0.52;0.10;;;;;;;8.81;84.59;97591.69;2309207;69;20321;-76
2021/01/29 05:28:53;;;;;;;0.47;0.08;;;;;;;8.72;84.85;97587.59;2309698;69;20336;-78
2021/01/29 05:32:09;;;;;;;0.08;0.08;;;;;;;8.66;84.89;97593.78;2310210;69;20306;-78
2021/01/29 05:35:40;;;;;;;0.05;0.05;;;;;;;8.62;85.19;97591.31;2310380;69;20314;-78
2021/01/29 05:38:57;;;;;;;1.04;0.10;;;;;;;8.55;85.01;97594.94;2307951;69;20301;-78
2021/01/29 05:42:24;;;;;;;1.09;0.10;;;;;;;8.51;85.48;97595.91;2309831;69;20334;-78
2021/01/29 05:45:56;;;;;;;0.00;0.00;;;;;;;8.49;85.55;97593.34;2308536;69;22964;-79
2021/01/29 05:49:09;;;;;;;0.08;0.08;;;;;;;8.46;85.60;97612.41;2309459;69;20833;-77
2021/01/29 05:52:38;;;;;;;0.14;0.00;;;;;;;8.42;86.20;97609.91;2309041;69;20285;-77
2021/01/29 05:55:53;;;;;;;1.49;0.05;;;;;;;8.41;86.60;97614.22;2313907;69;20396;-77
2021/01/29 05:59:11;;;;;;;1.26;0.11;;;;;;;8.43;86.99;97627.97;2310270;69;20152;-77
2021/01/29 06:02:42;;;;;;;3.39;0.10;;;;;;;8.50;87.35;97635.59;2308750;66;23496;-77
2021/01/29 06:06:11;;;;;;;0.08;0.08;;;;;;;8.50;87.72;97623.50;2299848;69;20731;-77
2021/01/29 06:09:50;;;;;;;0.10;0.10;;;;;;;8.52;88.10;97626.91;2309737;69;20404;-77
2021/01/29 06:13:14;;;;;;;0.10;0.10;;;;;;;8.55;88.44;97632.00;2309679;69;20665;-78
2021/01/29 06:16:36;;;;;;;0.24;0.10;;;;;;;8.55;88.72;97634.59;2307147;66;20614;-77
2021/01/29 06:19:57;;;;;;;0.88;0.30;;;;;;;8.60;88.84;97634.47;2309402;69;20641;-77
2021/01/29 06:23:06;;;;;;;0.10;0.10;;;;;;;8.60;88.81;97631.88;2309496;69;20418;-77
2021/01/29 06:26:27;;;;;;;0.29;0.10;;;;;;;8.61;88.81;97633.56;2309018;69;20290;-77
2021/01/29 06:29:47;;;;;;;0.25;0.10;;;;;;;8.61;88.78;97633.56;2308908;69;20346;-76
2021/01/29 06:33:10;;;;;;;0.10;0.10;;;;;;;8.60;88.70;97632.72;2307547;69;20327;-78
2021/01/29 06:36:38;;;;;;;0.38;0.10;;;;;;;8.65;88.44;97614.53;2308993;69;20319;-77
2021/01/29 06:39:52;;;;;;;0.43;0.10;;;;;;;8.68;88.36;97619.59;2307727;69;20289;-76
2021/01/29 06:43:12;;;;;;;0.44;0.10;;;;;;;8.68;88.07;97624.78;2309195;69;20985;-76
2021/01/29 06:46:35;;;;;;;0.10;0.10;;;;;;;8.71;87.85;97642.81;2307182;66;21260;-77
2021/01/29 06:49:46;;;;;;;0.45;0.20;;;;;;;8.70;87.63;97649.72;2309176;69;20281;-78
2021/01/29 06:53:07;;;;;;;0.21;0.10;;;;;;;8.72;87.59;97653.13;2309618;69;20285;-76
2021/01/29 06:56:44;;;;;;;0.16;0.10;;;;;;;8.73;87.71;97660.00;2309548;69;20396;-79
2021/01/29 07:00:01;;;;;;;1.06;0.10;;;;;;;8.74;87.82;97655.66;2309140;69;20273;-77
2021/01/29 07:03:22;;;;;;;0.13;0.10;;;;;;;8.74;87.83;97666.03;2308665;66;22966;-77
2021/01/29 07:06:49;;;;;;;2.83;0.20;;;;;;;8.75;87.83;97667.72;2311667;69;20461;-79
2021/01/29 07:10:00;;;;;;;0.10;0.10;;;;;;;8.77;87.84;97674.56;2310999;69;20998;-78
2021/01/29 07:13:39;;;;;;;1.38;0.10;;;;;;;8.80;87.81;97671.06;2309272;69;20313;-78
2021/01/29 07:16:56;;;;;;;0.32;0.10;;;;;;;8.84;87.77;97677.00;2328551;66;44792;-83
2021/01/29 07:20:43;;;;;;;0.90;0.10;;;;;;;8.82;87.62;97686.56;2322994;68;20214;-75
2021/01/29 07:24:13;;;;;;;1.08;0.10;;;;;;;8.83;87.58;97690.84;2317341;68;20795;-75
2021/01/29 07:27:31;;;;;;;0.86;0.15;;;;;;;8.83;87.21;97689.09;2322420;68;20319;-75
2021/01/29 07:30:42;;;;;;;1.45;0.30;;;;;;;8.82;86.54;97700.34;2322675;66;22777;-79
2021/01/29 07:34:08;;;;;;;2.19;0.69;;;;;;;8.85;86.04;97718.38;2322968;68;20844;-76
2021/01/29 07:37:32;;;;;;;2.24;0.13;;;;;;;8.88;85.31;97707.09;2326064;68;20303;-74
2021/01/29 07:40:53;;;;;;;1.33;0.40;;;;;;;8.88;85.10;97717.44;2326014;68;20371;-77
2021/01/29 07:44:18;;;;;;;2.58;0.30;;;;;;;8.87;84.64;97721.78;2324869;68;20291;-75
2021/01/29 07:47:44;;;;;;;3.05;0.40;;;;;;;8.88;84.31;97743.31;2324991;66;21766;-76
2021/01/29 07:50:52;;;;;;;2.51;0.44;;;;;;;8.90;84.05;97724.28;2326015;68;20287;-75
2021/01/29 07:54:19;;;;;;;4.30;0.68;;;;;;;8.91;83.26;97732.88;2323608;68;20337;-76
2021/01/29 07:57:39;;;;;;;2.35;0.43;;;;;;;8.90;81.75;97738.97;2314150;68;20716;-79
2021/01/29 08:01:24;;;;;;;2.17;0.39;;;;;;;8.90;82.09;97749.31;2324114;66;20985;-77
2021/01/29 08:04:41;;;;;;;4.28;0.43;;;;;;;8.94;82.10;97750.94;2328990;68;20316;-76
2021/01/29 08:07:58;;;;;;;3.92;0.63;;;;;;;8.99;81.70;97762.03;2324617;68;20371;-76
2021/01/29 08:11:01;;;;;;;2.20;0.50;;;;;;;8.96;80.76;97764.69;2325021;68;20291;-77
2021/01/29 08:14:42;;;;;;;4.76;1.77;;;;;;;8.97;80.92;97776.75;2323929;68;20287;-76
2021/01/29 08:18:22;;;;;;;;;;;;;;;9.01;80.50;97789.59;2322665;66;56241;-77
2021/01/29 08:21:36;;;;;;;3.28;0.40;;;;;;;9.11;79.30;97779.00;2322899;68;20088;-76
2021/01/29 08:24:42;;;;;;;4.15;0.56;;;;;;;9.15;79.47;97788.38;2322247;68;20831;-76
2021/01/29 08:28:08;;;;;;;3.53;0.65;;;;;;;9.11;79.23;97776.41;2323074;68;20303;-78
2021/01/29 08:31:28;;;;;;;4.71;0.73;;;;;;;9.06;79.01;97792.06;2321407;66;136761;-78
2021/01/29 08:34:33;;;;;;;3.14;0.75;;;;;;;9.03;78.53;97811.13;2322282;68;20346;-77
2021/01/29 08:38:01;;;;;;;3.95;0.60;;;;;;;9.00;78.79;97808.59;2323042;68;20732;-77
2021/01/29 08:41:31;;;;;;;4.78;1.08;;;;;;;8.95;79.83;97813.00;2323533;68;20283;-78
2021/01/29 08:44:42;;;;;;;4.90;0.65;;;;;;;8.90;80.96;97804.50;2321579;68;20338;-77
2021/01/29 08:48:23;;;;;;;5.94;0.70;;;;;;;8.86;81.38;97823.59;2322079;66;20421;-78
2021/01/29 08:51:29;;;;;;;4.86;0.84;;;;;;;8.82;82.07;97823.72;2322536;68;20737;-77
2021/01/29 08:55:08;;;;;;;5.55;0.70;;;;;;;8.82;82.36;97828.88;2322715;68;20307;-79
2021/01/29 08:58:36;;;;;;;4.28;0.56;;;;;;;8.84;82.29;97817.59;2324949;68;20413;-77
2021/01/29 09:02:19;;;;;;;5.47;1.00;;;;;;;8.86;81.60;97821.00;2313685;68;802928;-78
2021/01/29 09:05:29;;;;;;;5.26;1.09;;;;;;;8.90;81.43;97820.03;2328420;68;20188;-78
2021/01/29 09:08:58;;;;;;;5.46;0.79;;;;;;;8.97;81.32;97825.91;2324758;68;20885;-79
2021/01/29 09:12:40;;;;;;;4.49;0.77;;;;;;;8.99;80.92;97821.59;2325097;68;20456;-78
2021/01/29 09:16:30;;;;;;;3.42;1.02;;;;;;;9.05;80.64;97831.78;2321945;68;20397;-77
2021/01/29 09:19:40;;;;;;;4.95;0.69;;;;;;;9.07;80.22;97833.44;2323910;68;21000;-78
2021/01/29 09:23:30;;;;;;;4.93;0.60;;;;;;;9.12;79.15;97832.47;2323058;68;20271;-78
2021/01/29 09:27:10;;;;;;;4.88;2.17;;;;;;;9.19;78.34;97836.66;2290968;68;21097;-77
2021/01/29 09:30:29;;;;;;;6.96;0.99;;;;;;;9.32;78.49;97840.63;2322758;68;20620;-78
2021/01/29 09:34:28;;;;;;;4.21;0.60;;;;;;;9.32;78.42;97836.28;2323716;68;20329;-78
2021/01/29 09:37:47;;;;;;;5.53;0.94;;;;;;;9.47;78.57;97831.63;2317692;68;21179;-78
2021/01/29 09:41:05;;;;;;;9.27;1.56;;;;;;;9.73;77.48;97837.00;2322465;68;20310;-78
2021/01/29 09:44:46;;;;;;;7.99;1.35;;;;;;;9.91;75.98;97848.63;2322699;68;20666;-78
2021/01/29 09:48:25;;;;;;;5.29;0.80;;;;;;;9.96;75.64;97849.34;2309338;68;1001216;-79
2021/01/29 09:52:12;;;;;;;7.85;1.23;;;;;;;9.98;74.93;97851.00;2322759;68;20168;-78
2021/01/29 09:55:56;;;;;;;8.19;1.11;;;;;;;10.00;74.13;97846.63;2322351;68;20421;-78
2021/01/29 09:59:37;;;;;;;6.04;1.46;;;;;;;10.08;74.77;97841.25;2323036;68;20615;-80
2021/01/29 10:03:39;;;;;;;8.90;1.84;;;;;;;10.37;74.65;97844.78;2316876;68;20279;-79
2021/01/29 10:07:18;;;;;;;9.27;2.29;;;;;;;10.39;73.10;97855.97;2319324;68;21235;-78
2021/01/29 10:10:38;;;;;;;7.05;1.13;;;;;;;10.29;72.87;97858.84;2324989;68;20383;-79
2021/01/29 10:14:46;;;;;;;6.81;2.08;;;;;;;10.22;73.34;97856.44;2322453;68;20318;-78
2021/01/29 10:18:36;;;;;;;7.61;1.23;;;;;;;10.15;72.35;97852.31;2309993;68;961068;-78
2021/01/29 10:22:19;;;;;;;5.32;1.01;;;;;;;10.18;72.02;97868.63;2322298;68;20147;-78
2021/01/29 10:29:58;;;;;;;;;;;;;;;;;;;;;
2021/01/29 10:33:57;;;;;;;9.46;2.09;;;;;;;10.25;73.78;97872.81;2322748;68;20326;-79
2021/01/29 10:37:31;;;;;;;7.15;1.10;;;;;;;10.24;72.76;97870.25;2323637;68;20295;-79
2021/01/29 10:41:02;;;;;;;9.40;1.27;;;;;;;10.20;72.92;97868.59;2324536;68;20314;-78
2021/01/29 10:44:36;;;;;;;5.49;0.98;;;;;;;10.09;73.26;97861.13;2323583;68;20312;-79
2021/01/29 10:48:13;;;;;;;5.81;0.96;;;;;;;10.07;73.11;97869.81;2323883;68;20275;-77
2021/01/29 10:51:38;;;;;;;5.63;2.08;;;;;;;10.09;72.81;97860.25;2324326;68;20425;-78
2021/01/29 10:55:23;;;;;;;9.75;1.59;;;;;;;10.13;72.94;97873.09;2324535;68;20740;-78
2021/01/29 10:59:08;;;;;;;5.85;0.96;;;;;;;10.13;71.90;97862.72;2323115;68;21231;-79
2021/01/29 11:02:37;;;;;;;;;;;;;;;10.18;72.52;97866.03;2309978;68;990961;-76
2021/01/29 11:06:02;;;;;;;6.74;1.25;;;;;;;10.25;73.11;97871.94;2324330;68;20472;-78
2021/01/29 11:09:25;;;;;;;8.38;1.00;;;;;;;10.28;72.61;97862.34;2325324;68;20740;-78
2021/01/29 11:13:27;;;;;;;7.53;0.79;;;;;;;10.33;72.68;97874.31;2321514;68;20826;-78
2021/01/29 11:17:20;;;;;;;5.86;0.88;;;;;;;10.29;72.43;97870.97;2324720;68;20935;-78
2021/01/29 11:20:35;;;;;;;5.72;0.70;;;;;;;10.31;72.43;97873.53;2323821;68;20207;-78
2021/01/29 11:24:22;;;;;;;4.29;1.31;;;;;;;10.34;72.03;97868.25;2323788;68;20159;-78
2021/01/29 11:27:38;;;;;;;6.63;1.10;;;;;;;10.32;72.86;97868.28;2322889;68;20648;-79
2021/01/29 11:31:20;;;;;;;5.53;0.80;;;;;;;10.30;72.51;97870.06;2321970;66;68520;-77
2021/01/29 11:34:43;;;;;;;4.15;0.54;;;;;;;10.27;73.10;97862.38;2323523;68;20190;-79
2021/01/29 11:38:37;;;;;;;2.33;0.52;;;;;;;10.26;73.05;97864.13;2323676;68;21144;-79
2021/01/29 11:45:59;;;;;;;3.38;0.50;;;;;;;10.22;73.54;97846.91;2313717;69;20170;-79
2021/01/29 11:49:42;;;;;;;;;;;;;;;10.06;73.54;97845.63;2316316;69;20334;-79
2021/01/29 11:53:58;;;;;;;3.20;0.77;;;;;;;10.03;75.14;97858.66;2316545;69;20035;-79
2021/01/29 11:57:59;;;;;;;2.19;0.40;;;;;;;9.83;75.27;97843.63;2304854;69;20301;-79
2021/01/29 12:02:05;;;;;;;3.22;0.77;;;;;;;9.77;75.57;97849.00;2304828;69;891837;-78
2021/01/29 12:05:38;;;;;;;3.88;0.50;;;;;;;9.78;74.60;97842.91;2318298;69;20300;-79
2021/01/29 12:08:57;;;;;;;;;;;;;;;9.85;74.96;97843.59;2317874;69;21220;-79
2021/01/29 12:16:31;;;;;;;3.44;0.54;;;;;;;10.48;75.26;97850.53;2316667;66;44383;-79
2021/01/29 12:19:50;;;;;;;3.49;0.50;;;;;;;10.98;73.56;97835.22;2318988;69;21019;-80
2021/01/29 12:23:24;;;;;;;2.58;0.59;;;;;;;11.16;71.68;97814.69;2317605;69;20219;-79
2021/01/29 12:27:18;;;;;;;;;;;;;;;;;;;;;
2021/01/29 12:31:06;;;;;;;3.79;0.50;;;;;;;10.99;70.92;97809.19;2313501;69;980227;-81
2021/01/29 12:34:34;;;;;;;4.59;0.60;;;;;;;10.69;71.95;97817.91;2319484;69;20269;-80
2021/01/29 12:38:19;;;;;;;2.55;0.40;;;;;;;10.32;74.31;97826.78;2320341;69;20199;-79
2021/01/29 12:42:02;;;;;;;4.28;0.39;;;;;;;9.92;75.51;97825.25;2317048;69;20307;-78
2021/01/29 12:45:50;;;;;;;0.89;0.34;;;;;;;9.63;77.23;97836.38;2324759;69;20524;-80
2021/01/29 12:49:56;;;;;;;2.55;0.54;;;;;;;9.40;78.05;97836.13;2324591;69;20321;-80
2021/01/29 12:53:15;;;;;;;0.49;0.10;;;;;;;9.26;78.93;97815.72;2325319;69;20276;-79
2021/01/29 12:56:53;;;;;;;0.44;0.20;;;;;;;9.11;79.58;97817.84;2319374;69;20344;-80
2021/01/29 13:00:38;;;;;;;1.54;0.22;;;;;;;8.94;79.27;97833.75;2321175;69;20328;-80
2021/01/29 13:03:58;;;;;;;0.28;0.20;;;;;;;8.87;79.94;97816.69;2315931;69;20288;-77
2021/01/29 13:07:08;;;;;;;1.05;0.26;;;;;;;8.90;80.65;97821.78;2314616;69;20840;-78
2021/01/29 13:10:40;;;;;;;0.89;0.26;;;;;;;9.06;81.29;97818.81;2314405;69;20325;-77
2021/01/29 13:14:00;;;;;;;1.86;0.30;;;;;;;9.34;81.82;97828.50;2311702;69;20342;-76
2021/01/29 13:17:27;;;;;;;1.49;0.24;;;;;;;9.35;81.22;97823.28;2314275;67;37717;-76
2021/01/29 13:20:34;;;;;;;1.39;0.20;;;;;;;9.28;81.21;97824.31;2314701;69;20300;-77
2021/01/29 13:23:40;;;;;;;1.56;0.20;;;;;;;9.21;81.44;97824.50;2314222;69;20296;-76
2021/01/29 13:26:44;;;;;;;3.88;1.20;;;;;;;9.16;82.14;97808.25;2314512;69;20336;-77
2021/01/29 13:29:46;;;;;;;1.33;0.66;;;;;;;9.17;82.70;97799.59;2314754;69;20316;-77
2021/01/29 13:32:48;;;;;;;2.85;0.86;;;;;;;9.24;82.83;97790.75;2312996;66;24275;-77
2021/01/29 13:36:09;;;;;;;3.54;0.68;;;;;;;9.21;82.24;97783.06;2314172;69;20304;-78
2021/01/29 13:39:26;;;;;;;2.10;0.60;;;;;;;9.12;82.78;97791.91;2315413;69;20276;-77
2021/01/29 13:42:31;;;;;;;3.84;0.36;;;;;;;9.04;83.03;97802.47;2314472;69;20288;-76
2021/01/29 13:45:33;;;;;;;3.89;1.31;;;;;;;8.92;83.47;97805.31;2309420;67;23645;-76
2021/01/29 13:48:35;;;;;;;5.11;0.88;;;;;;;8.84;83.57;97821.94;2312135;69;20304;-76
2021/01/29 13:51:38;;;;;;;4.54;0.57;;;;;;;8.81;83.72;97799.56;2314858;69;20276;-76
2021/01/29 13:54:40;;;;;;;4.49;1.15;;;;;;;8.77;82.95;97782.38;2315645;69;20380;-76
2021/01/29 13:58:05;;;;;;;1.30;0.30;;;;;;;8.76;82.65;97786.72;2315892;69;20288;-76
2021/01/29 14:01:15;;;;;;;2.49;0.63;;;;;;;8.74;82.69;97790.22;2314444;66;20469;-77
2021/01/29 14:04:24;;;;;;;3.55;0.45;;;;;;;8.63;81.91;97790.50;2314248;69;20300;-75
2021/01/29 14:07:25;;;;;;;6.69;1.75;;;;;;;8.56;81.98;97796.66;2315405;69;20276;-80
2021/01/29 14:10:30;;;;;;;3.75;1.05;;;;;;;8.38;81.86;97804.81;2315232;69;20147;-76
2021/01/29 14:14:20;;;;;;;1.41;0.31;;;;;;;8.24;81.90;97788.69;2316166;69;21178;-77
2021/01/29 14:17:32;;;;;;;1.79;0.50;;;;;;;8.09;81.46;97772.66;2309024;67;28691;-77
2021/01/29 14:20:43;;;;;;;1.75;0.50;;;;;;;8.05;81.95;97771.00;2314960;69;20695;-75
2021/01/29 14:24:14;;;;;;;1.48;0.30;;;;;;;8.00;82.39;97765.06;2315134;69;20316;-74
2021/01/29 14:27:37;;;;;;;0.94;0.30;;;;;;;7.99;82.03;97758.19;2314522;69;20297;-75
2021/01/29 14:31:07;;;;;;;2.56;0.47;;;;;;;8.03;82.22;97762.41;2315505;69;20888;-74
2021/01/29 14:34:21;;;;;;;1.54;0.60;;;;;;;8.06;82.42;97762.34;2314881;69;20741;-75
2021/01/29 14:37:51;;;;;;;2.08;0.30;;;;;;;8.10;81.99;97758.84;2315396;69;20276;-74
2021/01/29 14:45:31;;;;;;;1.70;0.30;;;;;;;8.40;82.21;97744.41;2314433;68;20405;-75
2021/01/29 14:48:37;;;;;;;3.06;0.40;;;;;;;8.63;82.03;97750.81;2314841;69;20315;-75
2021/01/29 14:51:49;;;;;;;2.17;0.30;;;;;;;8.75;81.17;97748.78;2315747;69;20284;-76
2021/01/29 14:54:58;;;;;;;1.84;0.40;;;;;;;8.82;80.68;97741.75;2315415;69;20304;-76
2021/01/29 14:57:59;;;;;;;2.76;0.50;;;;;;;8.92;80.95;97734.59;2316470;69;20315;-72
2021/01/29 15:01:06;;;;;;;2.60;0.31;;;;;;;9.00;80.40;97723.19;2315794;67;21398;-76
2021/01/29 15:04:17;;;;;;;3.58;0.70;;;;;;;9.09;80.30;97720.34;2316296;68;20308;-75
2021/01/29 15:07:24;;;;;;;1.69;0.39;;;;;;;9.22;80.07;97728.66;2316333;69;20333;-75
2021/01/29 15:10:46;;;;;;;5.38;0.91;;;;;;;9.35;80.88;97721.44;2316118;69;20385;-75
2021/01/29 15:13:59;;;;;;;3.66;0.55;;;;;;;9.45;80.60;97720.28;2310440;69;20322;-77
2021/01/29 15:17:38;;;;;;;3.01;0.60;;;;;;;9.48;80.30;97715.00;2311221;69;20406;-76
2021/01/29 15:21:46;;;;;;;3.22;0.45;;;;;;;9.45;79.94;97722.00;2285682;69;20288;-76
2021/01/29 15:25:12;;;;;;;3.28;0.50;;;;;;;9.36;79.56;97725.72;2282939;69;20322;-76
2021/01/29 15:28:16;;;;;;;1.70;0.50;;;;;;;9.24;79.52;97731.19;2288395;69;21306;-76
2021/01/29 15:31:18;;;;;;;9.41;2.08;;;;;;;9.18;79.88;97714.09;2286921;69;20318;-76
2021/01/29 15:38:53;;;;;;;14.89;10.50;;;;;;;9.00;80.14;97725.78;2317141;68;20718;-74
2021/01/29 15:41:58;;;;;;;5.19;1.26;;;;;;;8.94;80.74;97756.09;2323085;68;20271;-75
2021/01/29 15:45:00;;;;;;;3.31;1.15;;;;;;;8.92;80.53;97763.06;2322292;68;20307;-76
2021/01/29 15:48:07;;;;;;;5.99;1.39;;;;;;;8.88;80.16;97751.09;2321044;67;21201;-75
2021/01/29 15:51:09;;;;;;;4.93;1.24;;;;;;;8.78;81.14;97753.03;2322473;68;20295;-77
2021/01/29 15:54:19;;;;;;;7.71;1.00;;;;;;;8.72;81.13;97769.56;2322895;68;20299;-77
2021/01/29 15:57:32;;;;;;;4.96;0.90;;;;;;;8.65;81.46;97760.25;2323557;68;21207;-80
2021/01/29 16:00:36;;;;;;;3.80;0.91;;;;;;;8.53;81.39;97760.53;2326427;66;20391;-78
2021/01/29 16:03:45;;;;;;;4.29;0.68;;;;;;;8.39;81.76;97753.06;2322724;68;20691;-78
2021/01/29 16:06:55;;;;;;;6.84;1.73;;;;;;;8.33;82.24;97758.34;2322325;68;20307;-77
2021/01/29 16:09:56;;;;;;;5.04;0.50;;;;;;;8.25;82.73;97755.06;2323255;68;20135;-77
2021/01/29 16:13:42;;;;;;;1.71;0.47;;;;;;;8.14;83.11;97749.28;2322617;68;20287;-77
2021/01/29 16:16:44;;;;;;;3.42;0.75;;;;;;;8.11;83.61;97762.28;2321535;66;27972;-77
2021/01/29 16:19:47;;;;;;;1.58;0.96;;;;;;;8.02;84.15;97758.13;2322363;68;20868;-77
2021/01/29 16:23:00;;;;;;;2.61;0.55;;;;;;;8.01;84.45;97761.59;2322611;68;20304;-79